sensor_id;sensor_type;location;lat;lon;timestamp;temperature;humidity
23550;DHT22;11953;49.010;8.608;2023-04-25T00:02:00;10.50;99.90
23550;DHT22;11953;49.010;8.608;2023-04-25T00:04:48;10.40;99.90
23550;DHT22;11953;49.010;8.608;2023-04-25T00:07:35;10.40;99.90
23550;DHT22;11953;49.010;8.608;2023-04-25T00:10:22;10.40;99.90
23550;DHT22;11953;49.010;8.608;2023-04-25T00:13:09;10.30;99.90
23550;DHT22;11953;49.010;8.608;2023-04-25T00:15:56;10.20;99.90
23550;DHT22;11953;49.010;8.608;2023-04-25T00:18:43;10.20;99.90
23550;DHT22;11953;49.010;8.608;2023-04-25T00:21:33;10.20;99.90
23550;DHT22;11953;49.010;8.608;2023-04-25T00:24:20;10.20;99.90
23550;DHT22;11953;49.010;8.608;2023-04-25T00:27:07;10.30;99.90
23550;DHT22;11953;49.010;8.608;2023-04-25T00:29:54;10.40;99.90
23550;DHT22;11953;49.010;8.608;2023-04-25T00:32:41;10.40;99.90
23550;DHT22;11953;49.010;8.608;2023-04-25T00:35:28;10.40;99.90
23550;DHT22;11953;49.010;8.608;2023-04-25T00:38:16;10.30;99.90
23550;DHT22;11953;49.010;8.608;2023-04-25T00:41:02;10.40;99.90
23550;DHT22;11953;49.010;8.608;2023-04-25T00:43:50;10.30;99.90
23550;DHT22;11953;49.010;8.608;2023-04-25T00:46:38;10.30;99.90
23550;DHT22;11953;49.010;8.608;2023-04-25T00:49:25;10.30;99.90
23550;DHT22;11953;49.010;8.608;2023-04-25T00:52:12;10.30;99.90
23550;DHT22;11953;49.010;8.608;2023-04-25T00:55:00;10.30;99.90
23550;DHT22;11953;49.010;8.608;2023-04-25T00:57:47;10.40;99.90
23550;DHT22;11953;49.010;8.608;2023-04-25T01:00:34;10.40;99.90
23550;DHT22;11953;49.010;8.608;2023-04-25T01:03:21;10.50;99.90
23550;DHT22;11953;49.010;8.608;2023-04-25T01:06:10;10.40;99.90
23550;DHT22;11953;49.010;8.608;2023-04-25T01:08:57;10.40;99.90
23550;DHT22;11953;49.010;8.608;2023-04-25T01:11:46;10.40;99.90
23550;DHT22;11953;49.010;8.608;2023-04-25T01:14:34;10.50;99.90
23550;DHT22;11953;49.010;8.608;2023-04-25T01:17:21;10.50;99.90
23550;DHT22;11953;49.010;8.608;2023-04-25T01:20:08;10.40;99.90
23550;DHT22;11953;49.010;8.608;2023-04-25T01:22:57;10.50;99.90
23550;DHT22;11953;49.010;8.608;2023-04-25T01:25:44;10.50;99.90
23550;DHT22;11953;49.010;8.608;2023-04-25T01:28:33;10.60;99.90
23550;DHT22;11953;49.010;8.608;2023-04-25T01:31:20;10.50;99.90
23550;DHT22;11953;49.010;8.608;2023-04-25T01:34:07;10.50;99.90
23550;DHT22;11953;49.010;8.608;2023-04-25T01:36:53;10.50;99.90
23550;DHT22;11953;49.010;8.608;2023-04-25T01:39:42;10.50;99.90
23550;DHT22;11953;49.010;8.608;2023-04-25T01:42:28;10.50;99.90
23550;DHT22;11953;49.010;8.608;2023-04-25T01:45:16;10.50;99.90
23550;DHT22;11953;49.010;8.608;2023-04-25T01:48:03;10.50;99.90
23550;DHT22;11953;49.010;8.608;2023-04-25T01:50:50;10.40;99.90
23550;DHT22;11953;49.010;8.608;2023-04-25T01:53:37;10.40;99.90
23550;DHT22;11953;49.010;8.608;2023-04-25T01:56:27;10.40;99.90
23550;DHT22;11953;49.010;8.608;2023-04-25T01:59:16;10.50;99.90
23550;DHT22;11953;49.010;8.608;2023-04-25T02:02:23;10.50;99.90
23550;DHT22;11953;49.010;8.608;2023-04-25T02:05:10;10.50;99.90
23550;DHT22;11953;49.010;8.608;2023-04-25T02:08:00;10.40;99.90
23550;DHT22;11953;49.010;8.608;2023-04-25T02:10:47;10.40;99.90
23550;DHT22;11953;49.010;8.608;2023-04-25T02:13:38;10.40;99.90
23550;DHT22;11953;49.010;8.608;2023-04-25T02:16:50;10.40;99.90
23550;DHT22;11953;49.010;8.608;2023-04-25T02:19:38;10.40;99.90
23550;DHT22;11953;49.010;8.608;2023-04-25T02:22:25;10.40;99.90
23550;DHT22;11953;49.010;8.608;2023-04-25T02:25:15;10.30;99.90
23550;DHT22;11953;49.010;8.608;2023-04-25T02:28:02;10.20;99.90
23550;DHT22;11953;49.010;8.608;2023-04-25T02:30:51;10.20;99.90
23550;DHT22;11953;49.010;8.608;2023-04-25T02:33:37;10.20;99.90
23550;DHT22;11953;49.010;8.608;2023-04-25T02:36:24;10.30;99.90
23550;DHT22;11953;49.010;8.608;2023-04-25T02:39:11;10.20;99.90
23550;DHT22;11953;49.010;8.608;2023-04-25T02:41:58;10.20;99.90
23550;DHT22;11953;49.010;8.608;2023-04-25T02:44:47;10.10;99.90
23550;DHT22;11953;49.010;8.608;2023-04-25T02:47:36;10.10;99.90
23550;DHT22;11953;49.010;8.608;2023-04-25T02:50:23;10.10;99.90
23550;DHT22;11953;49.010;8.608;2023-04-25T02:53:09;10.20;99.90
23550;DHT22;11953;49.010;8.608;2023-04-25T02:56:03;10.30;99.90
23550;DHT22;11953;49.010;8.608;2023-04-25T02:58:50;10.20;99.90
23550;DHT22;11953;49.010;8.608;2023-04-25T03:01:37;10.10;99.90
23550;DHT22;11953;49.010;8.608;2023-04-25T03:04:25;10.10;99.90
23550;DHT22;11953;49.010;8.608;2023-04-25T03:07:12;10.20;99.90
23550;DHT22;11953;49.010;8.608;2023-04-25T03:09:59;10.20;99.90
23550;DHT22;11953;49.010;8.608;2023-04-25T03:12:48;10.20;99.90
23550;DHT22;11953;49.010;8.608;2023-04-25T03:15:35;10.10;99.90
23550;DHT22;11953;49.010;8.608;2023-04-25T03:18:22;10.00;99.90
23550;DHT22;11953;49.010;8.608;2023-04-25T03:21:09;10.00;99.90
23550;DHT22;11953;49.010;8.608;2023-04-25T03:23:56;10.00;99.90
23550;DHT22;11953;49.010;8.608;2023-04-25T03:26:42;9.90;99.90
23550;DHT22;11953;49.010;8.608;2023-04-25T03:29:29;10.00;99.90
23550;DHT22;11953;49.010;8.608;2023-04-25T03:32:19;10.00;99.90
23550;DHT22;11953;49.010;8.608;2023-04-25T03:35:06;10.00;99.90
23550;DHT22;11953;49.010;8.608;2023-04-25T03:37:54;10.00;99.90
23550;DHT22;11953;49.010;8.608;2023-04-25T03:40:46;10.00;99.90
23550;DHT22;11953;49.010;8.608;2023-04-25T03:43:39;10.00;99.90
23550;DHT22;11953;49.010;8.608;2023-04-25T03:46:30;10.00;99.90
23550;DHT22;11953;49.010;8.608;2023-04-25T03:49:16;10.00;99.90
23550;DHT22;11953;49.010;8.608;2023-04-25T03:52:20;10.00;99.90
23550;DHT22;11953;49.010;8.608;2023-04-25T03:55:09;10.00;99.90
23550;DHT22;11953;49.010;8.608;2023-04-25T03:57:58;9.90;99.90
23550;DHT22;11953;49.010;8.608;2023-04-25T04:00:45;9.90;99.90
23550;DHT22;11953;49.010;8.608;2023-04-25T04:03:32;9.90;99.90
23550;DHT22;11953;49.010;8.608;2023-04-25T04:06:19;9.90;99.90
23550;DHT22;11953;49.010;8.608;2023-04-25T04:09:15;9.90;99.90
23550;DHT22;11953;49.010;8.608;2023-04-25T04:12:04;9.80;99.90
23550;DHT22;11953;49.010;8.608;2023-04-25T04:14:52;9.80;99.90
23550;DHT22;11953;49.010;8.608;2023-04-25T04:17:39;9.80;99.90
23550;DHT22;11953;49.010;8.608;2023-04-25T04:20:26;9.80;99.90
23550;DHT22;11953;49.010;8.608;2023-04-25T04:23:13;9.80;99.90
23550;DHT22;11953;49.010;8.608;2023-04-25T04:25:59;9.80;99.90
23550;DHT22;11953;49.010;8.608;2023-04-25T04:29:16;9.80;99.90
23550;DHT22;11953;49.010;8.608;2023-04-25T04:32:29;9.90;99.90
23550;DHT22;11953;49.010;8.608;2023-04-25T04:35:18;9.80;99.90
23550;DHT22;11953;49.010;8.608;2023-04-25T04:38:04;9.90;99.90
23550;DHT22;11953;49.010;8.608;2023-04-25T04:40:52;10.00;99.90
23550;DHT22;11953;49.010;8.608;2023-04-25T04:43:49;10.00;99.90
23550;DHT22;11953;49.010;8.608;2023-04-25T04:46:52;10.00;99.90
23550;DHT22;11953;49.010;8.608;2023-04-25T04:49:52;10.00;99.90
23550;DHT22;11953;49.010;8.608;2023-04-25T04:53:02;10.10;99.90
23550;DHT22;11953;49.010;8.608;2023-04-25T04:56:16;10.10;99.90
23550;DHT22;11953;49.010;8.608;2023-04-25T04:59:05;10.10;99.90
23550;DHT22;11953;49.010;8.608;2023-04-25T05:02:17;9.90;99.90
23550;DHT22;11953;49.010;8.608;2023-04-25T05:05:27;9.90;99.90
23550;DHT22;11953;49.010;8.608;2023-04-25T05:08:17;9.80;99.90
23550;DHT22;11953;49.010;8.608;2023-04-25T05:11:22;9.80;99.90
23550;DHT22;11953;49.010;8.608;2023-04-25T05:14:17;10.00;99.90
23550;DHT22;11953;49.010;8.608;2023-04-25T05:17:13;10.00;99.90
23550;DHT22;11953;49.010;8.608;2023-04-25T05:20:20;10.00;99.90
23550;DHT22;11953;49.010;8.608;2023-04-25T05:23:26;10.20;99.90
23550;DHT22;11953;49.010;8.608;2023-04-25T05:26:27;10.00;99.90
23550;DHT22;11953;49.010;8.608;2023-04-25T05:29:39;10.30;99.90
23550;DHT22;11953;49.010;8.608;2023-04-25T05:32:43;10.30;99.90
23550;DHT22;11953;49.010;8.608;2023-04-25T05:35:32;10.30;99.90
23550;DHT22;11953;49.010;8.608;2023-04-25T05:38:18;10.30;99.90
23550;DHT22;11953;49.010;8.608;2023-04-25T05:41:34;10.40;99.90
23550;DHT22;11953;49.010;8.608;2023-04-25T05:44:47;10.40;99.90
23550;DHT22;11953;49.010;8.608;2023-04-25T05:47:41;10.20;99.90
23550;DHT22;11953;49.010;8.608;2023-04-25T05:50:35;10.40;99.90
23550;DHT22;11953;49.010;8.608;2023-04-25T05:53:33;10.50;99.90
23550;DHT22;11953;49.010;8.608;2023-04-25T05:56:20;10.60;99.90
23550;DHT22;11953;49.010;8.608;2023-04-25T05:59:10;10.70;99.90
23550;DHT22;11953;49.010;8.608;2023-04-25T06:01:57;10.80;99.90
23550;DHT22;11953;49.010;8.608;2023-04-25T06:04:45;10.90;99.90
23550;DHT22;11953;49.010;8.608;2023-04-25T06:07:34;10.80;99.90
23550;DHT22;11953;49.010;8.608;2023-04-25T06:10:22;10.90;99.90
23550;DHT22;11953;49.010;8.608;2023-04-25T06:13:08;10.90;99.90
23550;DHT22;11953;49.010;8.608;2023-04-25T06:15:55;11.00;99.90
23550;DHT22;11953;49.010;8.608;2023-04-25T06:18:44;11.00;99.90
23550;DHT22;11953;49.010;8.608;2023-04-25T06:21:31;11.00;99.90
23550;DHT22;11953;49.010;8.608;2023-04-25T06:24:19;11.00;99.90
23550;DHT22;11953;49.010;8.608;2023-04-25T06:27:06;11.00;99.90
23550;DHT22;11953;49.010;8.608;2023-04-25T06:29:53;11.00;99.90
23550;DHT22;11953;49.010;8.608;2023-04-25T06:32:39;10.90;99.90
23550;DHT22;11953;49.010;8.608;2023-04-25T06:35:27;10.90;99.90
23550;DHT22;11953;49.010;8.608;2023-04-25T06:38:14;10.80;99.90
23550;DHT22;11953;49.010;8.608;2023-04-25T06:41:07;10.70;99.90
23550;DHT22;11953;49.010;8.608;2023-04-25T06:43:55;10.80;99.90
23550;DHT22;11953;49.010;8.608;2023-04-25T06:46:47;10.70;99.90
23550;DHT22;11953;49.010;8.608;2023-04-25T06:49:34;10.80;99.90
23550;DHT22;11953;49.010;8.608;2023-04-25T06:52:21;10.70;99.90
23550;DHT22;11953;49.010;8.608;2023-04-25T06:55:09;10.70;99.90
23550;DHT22;11953;49.010;8.608;2023-04-25T06:58:29;10.80;99.90
23550;DHT22;11953;49.010;8.608;2023-04-25T07:01:33;10.80;99.90
23550;DHT22;11953;49.010;8.608;2023-04-25T07:04:24;10.70;99.90
23550;DHT22;11953;49.010;8.608;2023-04-25T07:07:16;10.80;99.90
23550;DHT22;11953;49.010;8.608;2023-04-25T07:10:10;10.70;99.90
23550;DHT22;11953;49.010;8.608;2023-04-25T07:12:57;10.70;99.90
23550;DHT22;11953;49.010;8.608;2023-04-25T07:15:45;10.70;99.90
23550;DHT22;11953;49.010;8.608;2023-04-25T07:18:35;10.70;99.90
23550;DHT22;11953;49.010;8.608;2023-04-25T07:21:22;10.60;99.90
23550;DHT22;11953;49.010;8.608;2023-04-25T07:24:10;10.50;99.90
23550;DHT22;11953;49.010;8.608;2023-04-25T07:27:01;10.60;99.90
23550;DHT22;11953;49.010;8.608;2023-04-25T07:29:54;10.80;99.90
23550;DHT22;11953;49.010;8.608;2023-04-25T07:32:43;10.90;99.90
23550;DHT22;11953;49.010;8.608;2023-04-25T07:35:30;10.90;99.90
23550;DHT22;11953;49.010;8.608;2023-04-25T07:38:17;10.90;99.90
23550;DHT22;11953;49.010;8.608;2023-04-25T07:41:04;10.90;99.90
23550;DHT22;11953;49.010;8.608;2023-04-25T07:43:52;10.80;99.90
23550;DHT22;11953;49.010;8.608;2023-04-25T07:46:39;10.90;99.90
23550;DHT22;11953;49.010;8.608;2023-04-25T07:49:28;10.80;99.90
23550;DHT22;11953;49.010;8.608;2023-04-25T07:52:15;10.80;99.90
23550;DHT22;11953;49.010;8.608;2023-04-25T07:55:08;10.90;99.90
23550;DHT22;11953;49.010;8.608;2023-04-25T07:58:07;10.80;99.90
23550;DHT22;11953;49.010;8.608;2023-04-25T08:00:57;10.90;99.90
23550;DHT22;11953;49.010;8.608;2023-04-25T08:03:53;11.00;99.90
23550;DHT22;11953;49.010;8.608;2023-04-25T08:06:48;10.80;99.90
23550;DHT22;11953;49.010;8.608;2023-04-25T08:09:40;10.90;99.90
23550;DHT22;11953;49.010;8.608;2023-04-25T08:12:34;10.90;99.90
23550;DHT22;11953;49.010;8.608;2023-04-25T08:15:21;10.80;99.90
23550;DHT22;11953;49.010;8.608;2023-04-25T08:18:08;10.70;99.90
23550;DHT22;11953;49.010;8.608;2023-04-25T08:20:55;10.60;99.90
23550;DHT22;11953;49.010;8.608;2023-04-25T08:23:44;10.60;99.90
23550;DHT22;11953;49.010;8.608;2023-04-25T08:26:45;10.50;99.90
23550;DHT22;11953;49.010;8.608;2023-04-25T08:29:35;10.40;99.90
23550;DHT22;11953;49.010;8.608;2023-04-25T08:32:21;10.50;99.90
23550;DHT22;11953;49.010;8.608;2023-04-25T08:35:27;10.60;99.90
23550;DHT22;11953;49.010;8.608;2023-04-25T08:38:14;10.70;99.90
23550;DHT22;11953;49.010;8.608;2023-04-25T08:41:03;10.80;99.90
23550;DHT22;11953;49.010;8.608;2023-04-25T08:43:52;10.90;99.90
23550;DHT22;11953;49.010;8.608;2023-04-25T08:46:41;10.80;99.90
23550;DHT22;11953;49.010;8.608;2023-04-25T08:49:45;10.80;99.90
23550;DHT22;11953;49.010;8.608;2023-04-25T08:52:36;10.80;99.90
23550;DHT22;11953;49.010;8.608;2023-04-25T08:55:23;10.80;99.90
23550;DHT22;11953;49.010;8.608;2023-04-25T08:58:16;10.90;99.90
23550;DHT22;11953;49.010;8.608;2023-04-25T09:01:04;11.00;99.90
23550;DHT22;11953;49.010;8.608;2023-04-25T09:03:58;11.00;99.90
23550;DHT22;11953;49.010;8.608;2023-04-25T09:06:45;11.00;99.90
23550;DHT22;11953;49.010;8.608;2023-04-25T09:09:32;11.10;99.90
23550;DHT22;11953;49.010;8.608;2023-04-25T09:12:19;11.10;99.90
23550;DHT22;11953;49.010;8.608;2023-04-25T09:15:09;11.10;99.90
23550;DHT22;11953;49.010;8.608;2023-04-25T09:18:13;11.10;99.90
23550;DHT22;11953;49.010;8.608;2023-04-25T09:21:07;11.20;99.90
23550;DHT22;11953;49.010;8.608;2023-04-25T09:23:59;10.70;99.90
23550;DHT22;11953;49.010;8.608;2023-04-25T09:26:47;10.30;99.90
23550;DHT22;11953;49.010;8.608;2023-04-25T09:29:34;10.00;99.90
23550;DHT22;11953;49.010;8.608;2023-04-25T09:32:24;9.90;99.90
23550;DHT22;11953;49.010;8.608;2023-04-25T09:35:24;9.60;99.90
23550;DHT22;11953;49.010;8.608;2023-04-25T09:38:14;9.70;99.90
23550;DHT22;11953;49.010;8.608;2023-04-25T09:41:10;9.70;99.90
23550;DHT22;11953;49.010;8.608;2023-04-25T09:44:02;9.70;99.90
23550;DHT22;11953;49.010;8.608;2023-04-25T09:46:53;9.70;99.90
23550;DHT22;11953;49.010;8.608;2023-04-25T09:49:44;9.70;99.90
23550;DHT22;11953;49.010;8.608;2023-04-25T09:52:32;9.50;99.90
23550;DHT22;11953;49.010;8.608;2023-04-25T09:55:31;9.60;99.90
23550;DHT22;11953;49.010;8.608;2023-04-25T09:58:18;9.80;99.90
23550;DHT22;11953;49.010;8.608;2023-04-25T10:01:07;9.80;99.90
23550;DHT22;11953;49.010;8.608;2023-04-25T10:04:06;9.80;99.90
23550;DHT22;11953;49.010;8.608;2023-04-25T10:07:11;9.80;99.90
23550;DHT22;11953;49.010;8.608;2023-04-25T10:10:04;9.80;99.90
23550;DHT22;11953;49.010;8.608;2023-04-25T10:12:51;9.90;99.90
23550;DHT22;11953;49.010;8.608;2023-04-25T10:15:39;9.90;99.90
23550;DHT22;11953;49.010;8.608;2023-04-25T10:18:26;9.90;99.90
23550;DHT22;11953;49.010;8.608;2023-04-25T10:21:15;9.90;99.90
23550;DHT22;11953;49.010;8.608;2023-04-25T10:24:04;9.90;99.90
23550;DHT22;11953;49.010;8.608;2023-04-25T10:26:51;10.00;99.90
23550;DHT22;11953;49.010;8.608;2023-04-25T10:29:37;9.80;99.90
23550;DHT22;11953;49.010;8.608;2023-04-25T10:32:24;9.70;99.90
23550;DHT22;11953;49.010;8.608;2023-04-25T10:35:14;9.80;99.90
23550;DHT22;11953;49.010;8.608;2023-04-25T10:38:08;9.90;99.90
23550;DHT22;11953;49.010;8.608;2023-04-25T10:41:04;9.80;99.90
23550;DHT22;11953;49.010;8.608;2023-04-25T10:43:59;9.80;99.90
23550;DHT22;11953;49.010;8.608;2023-04-25T10:46:47;9.90;99.90
23550;DHT22;11953;49.010;8.608;2023-04-25T10:49:35;9.80;99.90
23550;DHT22;11953;49.010;8.608;2023-04-25T10:52:26;9.90;99.90
23550;DHT22;11953;49.010;8.608;2023-04-25T10:55:13;9.90;99.90
23550;DHT22;11953;49.010;8.608;2023-04-25T10:58:02;10.00;99.90
23550;DHT22;11953;49.010;8.608;2023-04-25T11:00:49;10.20;99.90
23550;DHT22;11953;49.010;8.608;2023-04-25T11:03:43;10.30;99.90
23550;DHT22;11953;49.010;8.608;2023-04-25T11:06:37;10.20;99.90
23550;DHT22;11953;49.010;8.608;2023-04-25T11:09:30;10.40;99.90
23550;DHT22;11953;49.010;8.608;2023-04-25T11:12:19;10.50;99.90
23550;DHT22;11953;49.010;8.608;2023-04-25T11:15:08;10.40;99.90
23550;DHT22;11953;49.010;8.608;2023-04-25T11:17:55;10.50;99.90
23550;DHT22;11953;49.010;8.608;2023-04-25T11:20:43;10.40;99.90
23550;DHT22;11953;49.010;8.608;2023-04-25T11:23:30;10.30;99.90
23550;DHT22;11953;49.010;8.608;2023-04-25T11:26:19;10.30;99.90
23550;DHT22;11953;49.010;8.608;2023-04-25T11:29:06;10.30;99.90
23550;DHT22;11953;49.010;8.608;2023-04-25T11:31:54;10.20;99.90
23550;DHT22;11953;49.010;8.608;2023-04-25T11:34:44;10.20;99.90
23550;DHT22;11953;49.010;8.608;2023-04-25T11:37:31;10.10;99.90
23550;DHT22;11953;49.010;8.608;2023-04-25T11:40:19;10.00;99.90
23550;DHT22;11953;49.010;8.608;2023-04-25T11:43:06;10.00;99.90
23550;DHT22;11953;49.010;8.608;2023-04-25T11:45:53;10.00;99.90
23550;DHT22;11953;49.010;8.608;2023-04-25T11:48:42;10.00;99.90
23550;DHT22;11953;49.010;8.608;2023-04-25T11:51:30;10.10;99.90
23550;DHT22;11953;49.010;8.608;2023-04-25T11:54:17;10.20;99.90
23550;DHT22;11953;49.010;8.608;2023-04-25T11:57:04;10.30;99.90
23550;DHT22;11953;49.010;8.608;2023-04-25T11:59:51;10.40;99.90
23550;DHT22;11953;49.010;8.608;2023-04-25T12:02:41;10.70;99.90
23550;DHT22;11953;49.010;8.608;2023-04-25T12:05:30;10.70;99.90
23550;DHT22;11953;49.010;8.608;2023-04-25T12:08:20;10.80;99.90
23550;DHT22;11953;49.010;8.608;2023-04-25T12:11:20;10.80;99.90
23550;DHT22;11953;49.010;8.608;2023-04-25T12:14:06;10.70;99.90
23550;DHT22;11953;49.010;8.608;2023-04-25T12:16:55;10.60;99.90
23550;DHT22;11953;49.010;8.608;2023-04-25T12:19:43;10.70;99.90
23550;DHT22;11953;49.010;8.608;2023-04-25T12:22:31;10.60;99.90
23550;DHT22;11953;49.010;8.608;2023-04-25T12:25:35;10.90;99.90
23550;DHT22;11953;49.010;8.608;2023-04-25T12:28:23;11.00;99.90
23550;DHT22;11953;49.010;8.608;2023-04-25T12:31:10;11.10;99.90
23550;DHT22;11953;49.010;8.608;2023-04-25T12:33:57;11.10;99.90
23550;DHT22;11953;49.010;8.608;2023-04-25T12:36:44;10.80;99.90
23550;DHT22;11953;49.010;8.608;2023-04-25T12:39:32;10.90;99.90
23550;DHT22;11953;49.010;8.608;2023-04-25T12:42:19;10.90;99.90
23550;DHT22;11953;49.010;8.608;2023-04-25T12:45:07;11.00;99.90
23550;DHT22;11953;49.010;8.608;2023-04-25T12:47:53;11.40;99.90
23550;DHT22;11953;49.010;8.608;2023-04-25T12:50:41;11.40;99.90
23550;DHT22;11953;49.010;8.608;2023-04-25T12:53:28;11.40;99.90
23550;DHT22;11953;49.010;8.608;2023-04-25T12:56:16;11.80;99.90
23550;DHT22;11953;49.010;8.608;2023-04-25T12:59:04;11.80;99.90
23550;DHT22;11953;49.010;8.608;2023-04-25T13:01:50;11.90;99.90
23550;DHT22;11953;49.010;8.608;2023-04-25T13:04:37;12.20;99.90
23550;DHT22;11953;49.010;8.608;2023-04-25T13:07:24;12.30;99.90
23550;DHT22;11953;49.010;8.608;2023-04-25T13:10:11;12.30;99.90
23550;DHT22;11953;49.010;8.608;2023-04-25T13:12:59;12.30;99.90
23550;DHT22;11953;49.010;8.608;2023-04-25T13:15:46;12.30;99.90
23550;DHT22;11953;49.010;8.608;2023-04-25T13:18:33;12.30;99.90
23550;DHT22;11953;49.010;8.608;2023-04-25T13:21:20;12.10;99.90
23550;DHT22;11953;49.010;8.608;2023-04-25T13:24:07;12.00;99.90
23550;DHT22;11953;49.010;8.608;2023-04-25T13:26:53;11.70;99.90
23550;DHT22;11953;49.010;8.608;2023-04-25T13:29:41;11.80;99.90
23550;DHT22;11953;49.010;8.608;2023-04-25T13:32:28;11.80;99.90
23550;DHT22;11953;49.010;8.608;2023-04-25T13:35:17;11.90;99.90
23550;DHT22;11953;49.010;8.608;2023-04-25T13:38:04;12.10;99.90
23550;DHT22;11953;49.010;8.608;2023-04-25T13:40:50;11.80;99.90
23550;DHT22;11953;49.010;8.608;2023-04-25T13:43:38;11.90;99.90
23550;DHT22;11953;49.010;8.608;2023-04-25T13:46:26;11.80;99.90
23550;DHT22;11953;49.010;8.608;2023-04-25T13:49:30;11.90;99.90
23550;DHT22;11953;49.010;8.608;2023-04-25T13:52:16;12.00;99.90
23550;DHT22;11953;49.010;8.608;2023-04-25T13:55:03;11.90;99.90
23550;DHT22;11953;49.010;8.608;2023-04-25T13:57:52;11.90;99.90
23550;DHT22;11953;49.010;8.608;2023-04-25T14:00:39;11.90;99.90
23550;DHT22;11953;49.010;8.608;2023-04-25T14:03:30;11.90;99.90
23550;DHT22;11953;49.010;8.608;2023-04-25T14:06:17;12.00;99.90
23550;DHT22;11953;49.010;8.608;2023-04-25T14:09:08;12.20;99.90
23550;DHT22;11953;49.010;8.608;2023-04-25T14:11:55;12.40;99.90
23550;DHT22;11953;49.010;8.608;2023-04-25T14:14:42;12.40;99.90
23550;DHT22;11953;49.010;8.608;2023-04-25T14:17:29;12.50;99.90
23550;DHT22;11953;49.010;8.608;2023-04-25T14:20:17;12.70;99.90
23550;DHT22;11953;49.010;8.608;2023-04-25T14:23:05;12.90;99.90
23550;DHT22;11953;49.010;8.608;2023-04-25T14:25:52;12.80;99.90
23550;DHT22;11953;49.010;8.608;2023-04-25T14:28:39;12.60;99.90
23550;DHT22;11953;49.010;8.608;2023-04-25T14:31:25;12.50;99.90
23550;DHT22;11953;49.010;8.608;2023-04-25T14:34:12;12.40;99.90
23550;DHT22;11953;49.010;8.608;2023-04-25T14:37:00;12.40;99.90
23550;DHT22;11953;49.010;8.608;2023-04-25T14:39:47;12.50;99.90
23550;DHT22;11953;49.010;8.608;2023-04-25T14:42:34;12.50;99.90
23550;DHT22;11953;49.010;8.608;2023-04-25T14:45:20;12.50;99.90
23550;DHT22;11953;49.010;8.608;2023-04-25T14:48:07;12.70;99.90
23550;DHT22;11953;49.010;8.608;2023-04-25T14:50:54;12.80;99.90
23550;DHT22;11953;49.010;8.608;2023-04-25T14:53:42;12.80;99.90
23550;DHT22;11953;49.010;8.608;2023-04-25T14:56:29;12.80;99.90
23550;DHT22;11953;49.010;8.608;2023-04-25T14:59:16;12.70;99.90
23550;DHT22;11953;49.010;8.608;2023-04-25T15:02:02;12.70;99.90
23550;DHT22;11953;49.010;8.608;2023-04-25T15:04:49;12.80;99.90
23550;DHT22;11953;49.010;8.608;2023-04-25T15:07:37;12.80;99.90
23550;DHT22;11953;49.010;8.608;2023-04-25T15:10:25;12.80;99.90
23550;DHT22;11953;49.010;8.608;2023-04-25T15:13:12;12.80;99.90
23550;DHT22;11953;49.010;8.608;2023-04-25T15:15:59;12.70;99.90
23550;DHT22;11953;49.010;8.608;2023-04-25T15:18:45;12.70;99.90
23550;DHT22;11953;49.010;8.608;2023-04-25T15:21:32;12.50;99.90
23550;DHT22;11953;49.010;8.608;2023-04-25T15:24:19;12.30;99.90
23550;DHT22;11953;49.010;8.608;2023-04-25T15:27:08;12.40;99.90
23550;DHT22;11953;49.010;8.608;2023-04-25T15:29:55;12.70;99.90
23550;DHT22;11953;49.010;8.608;2023-04-25T15:32:41;12.70;99.90
23550;DHT22;11953;49.010;8.608;2023-04-25T15:35:28;12.70;99.90
23550;DHT22;11953;49.010;8.608;2023-04-25T15:38:14;12.80;99.90
23550;DHT22;11953;49.010;8.608;2023-04-25T15:41:01;12.80;99.90
23550;DHT22;11953;49.010;8.608;2023-04-25T15:43:52;12.80;99.90
23550;DHT22;11953;49.010;8.608;2023-04-25T15:46:39;12.80;99.90
23550;DHT22;11953;49.010;8.608;2023-04-25T15:49:26;12.70;99.90
23550;DHT22;11953;49.010;8.608;2023-04-25T15:52:12;12.80;99.90
23550;DHT22;11953;49.010;8.608;2023-04-25T15:55:00;12.70;99.90
23550;DHT22;11953;49.010;8.608;2023-04-25T15:57:47;12.60;99.90
23550;DHT22;11953;49.010;8.608;2023-04-25T16:00:37;12.40;99.90
23550;DHT22;11953;49.010;8.608;2023-04-25T16:03:24;12.30;99.90
23550;DHT22;11953;49.010;8.608;2023-04-25T16:06:12;12.20;99.90
23550;DHT22;11953;49.010;8.608;2023-04-25T16:08:59;12.10;99.90
23550;DHT22;11953;49.010;8.608;2023-04-25T16:11:46;12.00;99.90
23550;DHT22;11953;49.010;8.608;2023-04-25T16:14:32;11.80;99.90
23550;DHT22;11953;49.010;8.608;2023-04-25T16:17:20;11.40;99.90
23550;DHT22;11953;49.010;8.608;2023-04-25T16:20:07;11.30;99.90
23550;DHT22;11953;49.010;8.608;2023-04-25T16:22:56;11.00;99.90
23550;DHT22;11953;49.010;8.608;2023-04-25T16:25:43;10.70;99.90
23550;DHT22;11953;49.010;8.608;2023-04-25T16:28:29;10.50;99.90
23550;DHT22;11953;49.010;8.608;2023-04-25T16:31:16;10.40;99.90
23550;DHT22;11953;49.010;8.608;2023-04-25T16:34:05;10.20;99.90
23550;DHT22;11953;49.010;8.608;2023-04-25T16:36:51;10.20;99.90
23550;DHT22;11953;49.010;8.608;2023-04-25T16:39:40;10.10;99.90
23550;DHT22;11953;49.010;8.608;2023-04-25T16:42:27;10.10;99.90
23550;DHT22;11953;49.010;8.608;2023-04-25T16:45:13;10.00;99.90
23550;DHT22;11953;49.010;8.608;2023-04-25T16:48:02;10.00;99.90
23550;DHT22;11953;49.010;8.608;2023-04-25T16:50:50;9.90;99.90
23550;DHT22;11953;49.010;8.608;2023-04-25T16:53:37;10.00;99.90
23550;DHT22;11953;49.010;8.608;2023-04-25T16:56:24;10.00;99.90
23550;DHT22;11953;49.010;8.608;2023-04-25T16:59:10;10.00;99.90
23550;DHT22;11953;49.010;8.608;2023-04-25T17:01:58;9.90;99.90
23550;DHT22;11953;49.010;8.608;2023-04-25T17:04:45;9.90;99.90
23550;DHT22;11953;49.010;8.608;2023-04-25T17:07:33;9.80;99.90
23550;DHT22;11953;49.010;8.608;2023-04-25T17:10:19;9.70;99.90
23550;DHT22;11953;49.010;8.608;2023-04-25T17:13:06;9.60;99.90
23550;DHT22;11953;49.010;8.608;2023-04-25T17:15:52;9.50;99.90
23550;DHT22;11953;49.010;8.608;2023-04-25T17:18:39;9.50;99.90
23550;DHT22;11953;49.010;8.608;2023-04-25T17:21:26;9.40;99.90
23550;DHT22;11953;49.010;8.608;2023-04-25T17:24:14;9.30;99.90
23550;DHT22;11953;49.010;8.608;2023-04-25T17:27:02;9.30;99.90
23550;DHT22;11953;49.010;8.608;2023-04-25T17:29:49;9.30;99.90
23550;DHT22;11953;49.010;8.608;2023-04-25T17:32:35;9.50;99.90
23550;DHT22;11953;49.010;8.608;2023-04-25T17:35:22;9.60;99.90
23550;DHT22;11953;49.010;8.608;2023-04-25T17:38:10;9.60;99.90
23550;DHT22;11953;49.010;8.608;2023-04-25T17:41:00;9.70;99.90
23550;DHT22;11953;49.010;8.608;2023-04-25T17:43:47;9.70;99.90
23550;DHT22;11953;49.010;8.608;2023-04-25T17:46:34;9.80;99.90
23550;DHT22;11953;49.010;8.608;2023-04-25T17:49:22;9.80;99.90
23550;DHT22;11953;49.010;8.608;2023-04-25T17:52:14;9.70;99.90
23550;DHT22;11953;49.010;8.608;2023-04-25T17:55:01;9.40;99.90